createdAt,value
2023-05-11T00:02:14.141Z,5.90
2023-05-11T00:04:41.393Z,5.90
2023-05-11T00:07:08.484Z,5.80
2023-05-11T00:09:35.891Z,5.70
2023-05-11T00:12:02.997Z,6.40
2023-05-11T00:14:29.819Z,6.20
2023-05-11T00:16:56.572Z,5.40
2023-05-11T00:19:23.354Z,6.70
2023-05-11T00:21:50.258Z,5.80
2023-05-11T00:24:16.995Z,6.30
2023-05-11T00:26:43.943Z,5.50
2023-05-11T00:29:11.073Z,6.40
2023-05-11T00:31:37.870Z,5.80
2023-05-11T00:34:04.733Z,6.10
2023-05-11T00:36:31.718Z,5.50
2023-05-11T00:38:58.510Z,6.10
2023-05-11T00:41:25.511Z,6.40
2023-05-11T00:43:52.402Z,5.90
2023-05-11T00:46:19.269Z,6.50
2023-05-11T00:48:46.386Z,6.30
2023-05-11T00:51:13.614Z,6.40
2023-05-11T00:53:40.508Z,6.30
2023-05-11T00:56:07.610Z,7.00
2023-05-11T00:58:35.120Z,6.00
2023-05-11T01:01:01.914Z,5.90
2023-05-11T01:03:29.651Z,5.80
2023-05-11T01:06:08.969Z,5.70
2023-05-11T01:08:53.356Z,5.80
2023-05-11T01:11:44.078Z,5.80
2023-05-11T01:14:27.348Z,5.70
2023-05-11T01:16:57.165Z,6.20
2023-05-11T01:19:48.756Z,6.60
2023-05-11T01:22:44.642Z,6.20
2023-05-11T01:25:39.271Z,6.00
2023-05-11T01:28:44.100Z,5.70
2023-05-11T01:31:11.376Z,5.50
2023-05-11T01:33:41.287Z,5.80
2023-05-11T01:36:10.177Z,6.00
2023-05-11T01:38:40.862Z,5.70
2023-05-11T01:41:15.780Z,5.20
2023-05-11T01:43:44.321Z,5.00
2023-05-11T01:46:11.348Z,5.40
2023-05-11T01:48:40.190Z,6.50
2023-05-11T01:51:07.165Z,6.60
2023-05-11T01:53:35.714Z,6.80
2023-05-11T01:56:02.883Z,6.40
2023-05-11T01:58:29.807Z,6.10
2023-05-11T02:00:57.228Z,6.10
2023-05-11T02:03:24.182Z,6.00
2023-05-11T02:05:51.064Z,6.20
2023-05-11T02:08:18.502Z,5.60
2023-05-11T02:10:46.104Z,5.60
2023-05-11T02:13:13.605Z,7.80
2023-05-11T02:15:41.674Z,7.60
2023-05-11T02:18:12.321Z,7.60
2023-05-11T02:20:39.632Z,6.90
2023-05-11T02:23:06.950Z,6.70
2023-05-11T02:25:33.817Z,7.30
2023-05-11T02:28:00.724Z,6.80
2023-05-11T02:30:28.085Z,7.20
2023-05-11T02:32:55.571Z,6.50
2023-05-11T02:35:24.478Z,6.80
2023-05-11T02:37:52.722Z,6.20
2023-05-11T02:40:21.913Z,5.90
2023-05-11T02:42:49.989Z,6.80
2023-05-11T02:45:16.979Z,6.90
2023-05-11T02:47:47.625Z,6.40
2023-05-11T02:50:19.484Z,7.30
2023-05-11T02:52:47.685Z,6.40
2023-05-11T02:55:15.453Z,6.90
2023-05-11T02:57:42.760Z,8.60
2023-05-11T03:00:10.932Z,8.10
2023-05-11T03:02:38.078Z,8.30
2023-05-11T03:05:06.307Z,7.40
2023-05-11T03:07:33.333Z,7.40
2023-05-11T03:10:01.208Z,7.10
2023-05-11T03:12:33.082Z,7.30
2023-05-11T03:15:00.890Z,5.90
2023-05-11T03:17:29.054Z,5.20
2023-05-11T03:19:56.752Z,5.70
2023-05-11T03:22:24.484Z,5.30
2023-05-11T03:24:51.854Z,6.20
2023-05-11T03:27:18.869Z,5.90
2023-05-11T03:29:45.742Z,5.30
2023-05-11T03:32:13.004Z,5.70
2023-05-11T03:34:40.262Z,5.40
2023-05-11T03:37:07.787Z,5.40
2023-05-11T03:39:35.258Z,6.40
2023-05-11T03:42:04.071Z,5.20
2023-05-11T03:44:34.545Z,5.30
2023-05-11T03:47:01.944Z,6.60
2023-05-11T03:49:28.981Z,7.60
2023-05-11T03:51:56.100Z,7.10
2023-05-11T03:54:23.854Z,5.20
2023-05-11T03:56:51.769Z,4.90
2023-05-11T03:59:19.561Z,5.10
2023-05-11T04:01:46.609Z,4.40
2023-05-11T04:04:14.153Z,4.60
2023-05-11T04:06:41.428Z,4.70
2023-05-11T04:11:39.817Z,5.30
2023-05-11T04:14:06.779Z,5.80
2023-05-11T04:16:33.722Z,5.00
2023-05-11T04:19:02.350Z,5.20
2023-05-11T04:21:29.348Z,4.20
2023-05-11T04:23:56.439Z,5.40
2023-05-11T04:26:24.582Z,4.70
2023-05-11T04:28:51.356Z,4.30
2023-05-11T04:31:18.147Z,4.30
2023-05-11T04:33:44.938Z,4.40
2023-05-11T04:36:12.043Z,4.50
2023-05-11T04:38:39.171Z,4.40
2023-05-11T04:41:07.692Z,3.90
2023-05-11T04:43:35.428Z,4.30
2023-05-11T04:46:02.361Z,4.30
2023-05-11T04:48:29.858Z,4.50
2023-05-11T04:50:56.931Z,4.30
2023-05-11T04:53:28.533Z,5.20
2023-05-11T04:55:55.531Z,4.30
2023-05-11T04:58:22.671Z,4.30
2023-05-11T05:00:49.579Z,4.40
2023-05-11T05:03:16.398Z,4.40
2023-05-11T05:05:43.229Z,4.50
2023-05-11T05:08:10.327Z,4.40
2023-05-11T05:10:38.102Z,5.10
2023-05-11T05:13:04.982Z,4.20
2023-05-11T05:15:31.885Z,4.20
2023-05-11T05:17:59.573Z,4.70
2023-05-11T05:20:26.372Z,4.50
2023-05-11T05:22:53.338Z,4.00
2023-05-11T05:25:21.706Z,4.60
2023-05-11T05:27:51.818Z,4.30
2023-05-11T05:30:19.925Z,4.30
2023-05-11T05:32:48.207Z,4.30
2023-05-11T05:35:15.150Z,4.30
2023-05-11T05:37:43.220Z,5.20
2023-05-11T05:40:11.203Z,4.40
2023-05-11T05:42:46.094Z,4.60
2023-05-11T05:45:16.120Z,3.90
2023-05-11T05:47:43.149Z,4.70
2023-05-11T05:50:11.880Z,4.30
2023-05-11T05:52:40.685Z,4.50
2023-05-11T05:55:08.306Z,4.70
2023-05-11T05:57:36.876Z,4.30
2023-05-11T06:00:04.662Z,4.80
2023-05-11T06:02:40.007Z,4.70
2023-05-11T06:05:08.191Z,4.50
2023-05-11T06:07:35.160Z,4.20
2023-05-11T06:10:02.229Z,5.00
2023-05-11T06:12:30.246Z,4.70
2023-05-11T06:14:58.107Z,4.70
2023-05-11T06:17:25.795Z,4.30
2023-05-11T06:19:52.688Z,4.20
2023-05-11T06:22:22.299Z,4.70
2023-05-11T06:24:50.696Z,4.50
2023-05-11T06:27:18.483Z,4.40
2023-05-11T06:29:45.836Z,4.80
2023-05-11T06:32:12.714Z,4.10
2023-05-11T06:34:39.854Z,4.50
2023-05-11T06:37:07.515Z,4.20
2023-05-11T06:39:37.815Z,4.30
2023-05-11T06:42:07.980Z,3.70
2023-05-11T06:44:34.981Z,3.90
2023-05-11T06:47:01.809Z,3.60
2023-05-11T06:49:28.944Z,3.80
2023-05-11T06:51:56.034Z,3.60
2023-05-11T06:56:02.430Z,3.50
2023-05-11T06:58:29.906Z,4.20
2023-05-11T07:00:56.757Z,3.20
2023-05-11T07:03:23.863Z,3.90
2023-05-11T07:05:50.666Z,3.50
2023-05-11T07:08:17.453Z,3.80
2023-05-11T07:10:44.222Z,3.40
2023-05-11T07:13:11.279Z,3.70
2023-05-11T07:15:37.973Z,3.70
2023-05-11T07:18:05.024Z,3.40
2023-05-11T07:20:32.173Z,3.40
2023-05-11T07:22:59.423Z,3.10
2023-05-11T07:25:26.214Z,2.90
2023-05-11T07:27:53.243Z,3.50
2023-05-11T07:30:20.539Z,3.20
2023-05-11T07:32:48.229Z,3.00
2023-05-11T07:35:18.098Z,2.90
2023-05-11T07:37:44.977Z,2.90
2023-05-11T07:40:12.246Z,2.80
2023-05-11T07:42:39.212Z,3.10
2023-05-11T07:45:06.989Z,2.80
2023-05-11T07:47:36.781Z,3.20
2023-05-11T07:50:04.391Z,3.40
2023-05-11T07:52:31.134Z,2.80
2023-05-11T07:54:57.936Z,2.60
2023-05-11T07:57:24.822Z,2.70
2023-05-11T07:59:51.690Z,2.50
2023-05-11T08:02:19.109Z,2.40
2023-05-11T08:04:46.212Z,2.40
2023-05-11T08:07:13.011Z,2.90
2023-05-11T08:09:39.945Z,2.80
2023-05-11T08:12:07.316Z,2.40
2023-05-11T08:14:34.200Z,2.50
2023-05-11T08:17:01.290Z,2.70
2023-05-11T08:19:28.092Z,2.40
2023-05-11T08:21:54.859Z,2.70
2023-05-11T08:24:21.688Z,2.40
2023-05-11T08:26:48.635Z,2.40
2023-05-11T08:29:15.536Z,2.20
2023-05-11T08:31:42.378Z,1.90
2023-05-11T08:34:18.453Z,2.20
2023-05-11T08:36:46.024Z,2.30
2023-05-11T08:39:12.973Z,2.20
2023-05-11T08:41:39.773Z,2.40
2023-05-11T08:44:06.575Z,2.10
2023-05-11T08:46:35.711Z,2.30
2023-05-11T08:49:02.611Z,2.30
2023-05-11T08:51:29.485Z,2.10
2023-05-11T08:53:57.897Z,2.30
2023-05-11T08:56:24.919Z,2.20
2023-05-11T08:58:53.112Z,2.20
2023-05-11T09:01:23.378Z,2.50
2023-05-11T09:03:50.610Z,2.20
2023-05-11T09:06:17.973Z,2.50
2023-05-11T09:08:45.393Z,2.20
2023-05-11T09:11:12.398Z,2.00
2023-05-11T09:13:39.464Z,2.00
2023-05-11T09:16:13.872Z,1.70
2023-05-11T09:18:51.264Z,2.00
2023-05-11T09:21:18.435Z,2.00
2023-05-11T09:23:45.228Z,1.80
2023-05-11T09:26:21.159Z,1.90
2023-05-11T09:29:03.081Z,2.40
2023-05-11T09:31:39.992Z,2.00
2023-05-11T09:34:20.956Z,1.90
2023-05-11T09:36:50.539Z,2.20
2023-05-11T09:39:35.047Z,1.70
2023-05-11T09:42:18.149Z,2.00
2023-05-11T09:44:45.612Z,1.80
2023-05-11T09:47:13.003Z,1.90
2023-05-11T09:49:43.325Z,2.00
2023-05-11T09:52:11.622Z,1.90
2023-05-11T09:54:48.875Z,1.90
2023-05-11T09:57:29.283Z,1.50
2023-05-11T09:59:57.134Z,1.90
2023-05-11T10:02:26.324Z,2.10
2023-05-11T10:04:55.034Z,1.70
2023-05-11T10:07:25.175Z,2.10
2023-05-11T10:09:53.634Z,2.10
2023-05-11T10:12:22.073Z,2.00
2023-05-11T10:14:50.035Z,1.90
2023-05-11T10:17:17.423Z,1.50
2023-05-11T10:19:44.250Z,1.80
2023-05-11T10:22:11.440Z,1.90
2023-05-11T10:24:38.258Z,1.80
2023-05-11T10:27:05.507Z,1.60
2023-05-11T10:29:32.358Z,2.00
2023-05-11T10:32:00.172Z,1.60
2023-05-11T10:34:29.292Z,1.50
2023-05-11T10:37:01.537Z,1.90
2023-05-11T10:39:31.571Z,2.10
2023-05-11T10:42:27.264Z,1.70
2023-05-11T10:45:45.816Z,1.70
2023-05-11T10:48:31.555Z,1.80
2023-05-11T10:51:13.107Z,2.00
2023-05-11T10:56:31.812Z,2.20
2023-05-11T10:59:47.186Z,1.90
2023-05-11T11:02:13.983Z,1.70
2023-05-11T11:04:51.727Z,2.20
2023-05-11T11:07:19.930Z,1.90
2023-05-11T11:10:00.713Z,1.80
2023-05-11T11:12:28.298Z,2.10
2023-05-11T11:15:06.728Z,2.20
2023-05-11T11:17:35.073Z,1.90
2023-05-11T11:20:08.706Z,1.80
2023-05-11T11:22:38.913Z,2.10
2023-05-11T11:25:06.422Z,2.10
2023-05-11T11:27:45.822Z,2.00
2023-05-11T11:30:22.989Z,2.40
2023-05-11T11:32:51.120Z,2.30
2023-05-11T11:35:40.206Z,2.10
2023-05-11T11:38:07.654Z,2.50
2023-05-11T11:40:51.112Z,2.40
2023-05-11T11:43:23.536Z,2.20
2023-05-11T11:46:02.920Z,1.90
2023-05-11T11:48:35.451Z,2.40
2023-05-11T11:51:10.547Z,1.80
2023-05-11T11:53:37.884Z,2.10
2023-05-11T11:56:05.783Z,2.30
2023-05-11T11:58:41.889Z,2.10
2023-05-11T12:01:09.288Z,2.20
2023-05-11T12:03:36.888Z,2.10
2023-05-11T12:06:08.325Z,2.30
2023-05-11T12:08:35.621Z,1.70
2023-05-11T12:11:03.077Z,2.80
2023-05-11T12:13:30.317Z,2.00
2023-05-11T12:16:09.744Z,2.20
2023-05-11T12:18:36.884Z,1.80
2023-05-11T12:21:03.912Z,2.10
2023-05-11T12:23:30.822Z,1.90
2023-05-11T12:26:07.221Z,2.20
2023-05-11T12:28:34.178Z,1.90
2023-05-11T12:31:01.063Z,1.80
2023-05-11T12:33:27.855Z,2.00
2023-05-11T12:35:55.523Z,2.00
2023-05-11T12:38:22.363Z,1.80
2023-05-11T12:40:50.075Z,1.50
2023-05-11T12:43:18.115Z,2.20
2023-05-11T12:45:45.332Z,1.80
2023-05-11T12:48:12.699Z,1.70
2023-05-11T12:50:43.414Z,1.70
2023-05-11T12:53:15.148Z,2.00
2023-05-11T12:55:42.108Z,1.80
2023-05-11T13:00:58.451Z,1.80
2023-05-11T13:03:26.811Z,2.00
2023-05-11T13:06:10.062Z,1.80
2023-05-11T13:08:44.251Z,1.80
2023-05-11T13:11:22.839Z,3.20
2023-05-11T13:13:50.508Z,2.30
2023-05-11T13:16:28.124Z,1.40
2023-05-11T13:19:02.494Z,1.60
2023-05-11T13:21:29.973Z,1.80
2023-05-11T13:23:57.050Z,1.80
2023-05-11T13:26:29.440Z,1.80
2023-05-11T13:29:09.364Z,1.70
2023-05-11T13:34:14.616Z,1.80
2023-05-11T13:36:41.461Z,1.80
2023-05-11T13:39:08.381Z,1.70
2023-05-11T13:41:35.488Z,1.90
2023-05-11T13:44:03.083Z,2.00
2023-05-11T13:46:29.980Z,1.70
2023-05-11T13:48:56.808Z,1.80
2023-05-11T13:51:23.880Z,1.70
2023-05-11T13:53:51.045Z,1.70
2023-05-11T13:56:19.673Z,1.90
2023-05-11T13:58:46.647Z,1.50
2023-05-11T14:01:13.723Z,1.60
2023-05-11T14:03:40.749Z,1.60
2023-05-11T14:06:07.811Z,1.90
2023-05-11T14:08:34.756Z,1.50
2023-05-11T14:11:01.584Z,1.70
2023-05-11T14:13:28.451Z,1.90
2023-05-11T14:15:55.368Z,1.90
2023-05-11T14:18:25.010Z,2.10
2023-05-11T14:20:52.045Z,1.70
2023-05-11T14:23:18.846Z,1.90
2023-05-11T14:25:45.572Z,1.80
2023-05-11T14:28:12.445Z,2.30
2023-05-11T14:30:39.455Z,2.00
2023-05-11T14:33:06.661Z,2.00
2023-05-11T14:35:33.818Z,2.10
2023-05-11T14:38:01.247Z,2.00
2023-05-11T14:40:27.984Z,2.00
2023-05-11T14:42:55.077Z,1.70
2023-05-11T14:45:22.096Z,1.70
2023-05-11T14:47:49.010Z,1.90
2023-05-11T14:50:16.207Z,1.80
2023-05-11T14:52:42.896Z,2.10
2023-05-11T14:55:09.899Z,1.80
2023-05-11T14:57:36.780Z,1.70
2023-05-11T15:00:04.188Z,2.00
2023-05-11T15:02:31.095Z,1.80
2023-05-11T15:04:58.039Z,2.10
2023-05-11T15:07:24.956Z,1.60
2023-05-11T15:09:52.270Z,2.00
2023-05-11T15:12:19.095Z,1.70
2023-05-11T15:14:46.167Z,1.90
2023-05-11T15:17:12.983Z,2.00
2023-05-11T15:19:39.802Z,1.90
2023-05-11T15:22:06.581Z,2.00
2023-05-11T15:24:34.087Z,1.70
2023-05-11T15:27:00.954Z,1.70
2023-05-11T15:29:27.701Z,1.70
2023-05-11T15:31:55.041Z,1.80
2023-05-11T15:34:22.044Z,1.50
2023-05-11T15:36:49.895Z,2.00
2023-05-11T15:39:17.393Z,2.00
2023-05-11T15:41:44.458Z,1.70
2023-05-11T15:44:11.299Z,2.00
2023-05-11T15:46:38.659Z,1.70
2023-05-11T15:49:06.359Z,1.80
2023-05-11T15:51:33.161Z,2.10
2023-05-11T15:53:59.990Z,1.80
2023-05-11T15:56:27.045Z,2.20
2023-05-11T15:58:53.969Z,1.80
2023-05-11T16:01:21.197Z,1.70
2023-05-11T16:03:48.112Z,2.90
2023-05-11T16:06:15.066Z,2.00
2023-05-11T16:08:42.129Z,2.30
2023-05-11T16:11:08.935Z,2.30
2023-05-11T16:13:35.731Z,2.00
2023-05-11T16:16:02.548Z,1.90
2023-05-11T16:18:29.437Z,1.70
2023-05-11T16:20:56.547Z,2.10
2023-05-11T16:23:25.475Z,2.00
2023-05-11T16:25:52.476Z,1.90
2023-05-11T16:28:19.836Z,1.80
2023-05-11T16:30:47.098Z,2.00
2023-05-11T16:33:14.393Z,2.20
2023-05-11T16:35:41.332Z,2.70
2023-05-11T16:38:16.820Z,2.30
2023-05-11T16:40:44.365Z,2.00
2023-05-11T16:43:11.333Z,1.80
2023-05-11T16:45:38.376Z,2.00
2023-05-11T16:48:05.891Z,1.70
2023-05-11T16:50:32.904Z,1.90
2023-05-11T16:52:59.975Z,1.90
2023-05-11T16:55:26.824Z,2.10
2023-05-11T16:57:53.698Z,1.90
2023-05-11T17:00:21.809Z,1.90
2023-05-11T17:02:48.991Z,1.90
2023-05-11T17:05:15.924Z,2.80
2023-05-11T17:07:44.920Z,1.90
2023-05-11T17:10:11.963Z,2.00
2023-05-11T17:12:38.793Z,1.90
2023-05-11T17:15:10.058Z,2.20
2023-05-11T17:17:37.993Z,1.80
2023-05-11T17:20:07.782Z,2.00
2023-05-11T17:22:34.989Z,2.00
2023-05-11T17:25:03.906Z,2.10
2023-05-11T17:27:31.623Z,2.00
2023-05-11T17:29:58.588Z,1.90
2023-05-11T17:32:25.618Z,2.30
2023-05-11T17:34:52.595Z,2.20
2023-05-11T17:37:31.325Z,2.10
2023-05-11T17:40:01.510Z,2.40
2023-05-11T17:42:28.634Z,2.20
2023-05-11T17:44:55.745Z,2.40
2023-05-11T17:47:23.250Z,2.60
2023-05-11T17:49:50.547Z,2.60
2023-05-11T17:52:17.516Z,2.10
2023-05-11T17:54:44.492Z,2.40
2023-05-11T17:57:11.314Z,2.50
2023-05-11T17:59:38.399Z,2.40
2023-05-11T18:02:05.621Z,2.70
2023-05-11T18:04:32.396Z,2.70
2023-05-11T18:07:00.425Z,2.80
2023-05-11T18:09:27.212Z,2.80
2023-05-11T18:11:54.062Z,2.80
2023-05-11T18:14:21.189Z,2.40
2023-05-11T18:16:50.555Z,2.80
2023-05-11T18:19:18.163Z,2.40
2023-05-11T18:21:45.596Z,3.10
2023-05-11T18:24:14.625Z,3.00
2023-05-11T18:26:42.049Z,3.50
2023-05-11T18:29:08.842Z,2.80
2023-05-11T18:31:36.304Z,3.10
2023-05-11T18:34:04.648Z,3.00
2023-05-11T18:36:31.553Z,2.80
2023-05-11T18:38:58.385Z,3.70
2023-05-11T18:41:25.388Z,3.40
2023-05-11T18:43:53.597Z,2.80
2023-05-11T18:46:21.611Z,3.20
2023-05-11T18:48:52.844Z,2.60
2023-05-11T18:51:22.909Z,2.70
2023-05-11T18:53:50.041Z,2.60
2023-05-11T18:56:17.384Z,2.50
2023-05-11T18:58:46.602Z,2.30
2023-05-11T19:01:14.172Z,2.10
2023-05-11T19:03:41.339Z,2.60
2023-05-11T19:06:08.230Z,2.10
2023-05-11T19:08:35.334Z,2.40
2023-05-11T19:13:32.013Z,2.60
2023-05-11T19:15:58.949Z,2.10
2023-05-11T19:18:27.499Z,2.30
2023-05-11T19:20:54.634Z,2.30
2023-05-11T19:23:21.783Z,2.30
2023-05-11T19:25:48.806Z,2.10
2023-05-11T19:28:15.852Z,2.10
2023-05-11T19:30:42.675Z,2.60
2023-05-11T19:33:09.592Z,2.90
2023-05-11T19:35:36.456Z,2.80
2023-05-11T19:38:06.121Z,3.10
2023-05-11T19:43:06.056Z,2.70
2023-05-11T19:45:33.300Z,2.70
2023-05-11T19:48:00.401Z,3.10
2023-05-11T19:50:27.825Z,2.70
2023-05-11T19:52:54.715Z,2.40
2023-05-11T19:55:21.836Z,2.60
2023-05-11T19:57:48.730Z,3.00
2023-05-11T20:00:18.217Z,2.30
2023-05-11T20:02:45.606Z,2.40
2023-05-11T20:05:12.646Z,2.40
2023-05-11T20:07:39.579Z,2.90
2023-05-11T20:10:07.091Z,2.60
2023-05-11T20:12:34.125Z,2.50
2023-05-11T20:15:01.026Z,2.80
2023-05-11T20:17:27.767Z,2.60
2023-05-11T20:19:55.083Z,2.70
2023-05-11T20:22:22.739Z,2.90
2023-05-11T20:24:49.602Z,3.30
2023-05-11T20:27:16.421Z,3.30
2023-05-11T20:29:43.424Z,2.40
2023-05-11T20:32:10.522Z,2.80
2023-05-11T20:34:37.397Z,2.70
2023-05-11T20:37:04.501Z,2.90
2023-05-11T20:39:31.304Z,2.50
2023-05-11T20:41:58.992Z,2.80
2023-05-11T20:44:26.218Z,2.80
2023-05-11T20:46:53.043Z,2.50
2023-05-11T20:49:34.732Z,2.80
2023-05-11T20:52:06.468Z,2.90
2023-05-11T20:54:35.077Z,2.70
2023-05-11T20:57:05.091Z,2.90
2023-05-11T21:02:02.297Z,3.00
2023-05-11T21:04:31.239Z,2.90
2023-05-11T21:06:58.121Z,2.60
2023-05-11T21:09:25.627Z,2.90
2023-05-11T21:11:52.527Z,3.10
2023-05-11T21:14:19.316Z,3.30
2023-05-11T21:16:46.260Z,3.00
2023-05-11T21:19:13.020Z,3.00
2023-05-11T21:21:39.811Z,2.90
2023-05-11T21:24:06.883Z,3.00
2023-05-11T21:26:33.611Z,3.00
2023-05-11T21:29:00.344Z,2.90
2023-05-11T21:31:27.413Z,3.30
2023-05-11T21:33:54.424Z,2.80
2023-05-11T21:36:22.352Z,3.00
2023-05-11T21:38:49.476Z,3.10
2023-05-11T21:41:17.012Z,3.00
2023-05-11T21:43:44.323Z,2.90
2023-05-11T21:46:11.254Z,3.00
2023-05-11T21:48:38.203Z,3.30
2023-05-11T21:51:05.024Z,3.10
2023-05-11T21:53:31.958Z,3.30
2023-05-11T21:55:58.971Z,3.50
2023-05-11T21:58:26.640Z,3.30
2023-05-11T22:00:55.794Z,3.30
2023-05-11T22:03:22.816Z,3.10
2023-05-11T22:05:49.756Z,3.20
2023-05-11T22:08:16.577Z,3.50
2023-05-11T22:10:43.399Z,3.70
2023-05-11T22:13:10.431Z,3.30
2023-05-11T22:15:37.446Z,3.20
2023-05-11T22:18:05.160Z,3.40
2023-05-11T22:20:32.113Z,3.10
2023-05-11T22:22:59.442Z,3.30
2023-05-11T22:25:26.672Z,3.20
2023-05-11T22:27:53.898Z,3.70
2023-05-11T22:30:21.101Z,3.50
2023-05-11T22:32:48.213Z,3.10
2023-05-11T22:35:15.064Z,3.10
2023-05-11T22:37:41.992Z,3.30
2023-05-11T22:40:09.610Z,3.20
2023-05-11T22:42:36.378Z,3.80
2023-05-11T22:45:03.372Z,3.10
2023-05-11T22:47:30.258Z,3.60
2023-05-11T22:49:57.322Z,3.30
2023-05-11T22:52:24.141Z,3.50
2023-05-11T22:55:04.055Z,3.50
2023-05-11T22:57:30.997Z,3.60
2023-05-11T22:59:57.935Z,3.40
2023-05-11T23:02:24.708Z,3.20
2023-05-11T23:04:52.282Z,3.50
2023-05-11T23:07:19.490Z,3.70
2023-05-11T23:09:46.432Z,3.90
2023-05-11T23:12:13.547Z,3.50
2023-05-11T23:14:40.445Z,3.40
2023-05-11T23:17:07.532Z,3.50
2023-05-11T23:19:35.256Z,3.60
2023-05-11T23:22:02.501Z,3.90
2023-05-11T23:24:29.303Z,3.70
2023-05-11T23:26:56.055Z,3.70
2023-05-11T23:29:22.967Z,3.50
2023-05-11T23:31:51.149Z,3.70
2023-05-11T23:34:18.439Z,4.00
2023-05-11T23:36:45.299Z,3.70
2023-05-11T23:39:12.381Z,3.40
2023-05-11T23:41:39.268Z,3.50
2023-05-11T23:44:06.044Z,3.40
2023-05-11T23:46:32.950Z,3.70
2023-05-11T23:48:59.737Z,3.70
2023-05-11T23:51:26.618Z,3.40
2023-05-11T23:53:53.377Z,3.60
2023-05-11T23:56:20.161Z,3.60
2023-05-11T23:58:47.134Z,3.60
